sensor_id;sensor_type;location;lat;lon;timestamp;pressure;altitude;pressure_sealevel;temperature;humidity
63090;BME280;49174;43.198;27.824;2022-09-12T00:00:48;100939.97;;;19.67;65.35
63090;BME280;49174;43.198;27.824;2022-09-12T00:03:14;100937.00;;;19.68;65.76
63090;BME280;49174;43.198;27.824;2022-09-12T00:05:44;100936.31;;;19.61;66.29
63090;BME280;49174;43.198;27.824;2022-09-12T00:08:10;100939.03;;;19.61;66.57
63090;BME280;49174;43.198;27.824;2022-09-12T00:10:41;100937.91;;;19.57;67.55
63090;BME280;49174;43.198;27.824;2022-09-12T00:13:08;100929.81;;;19.45;68.80
63090;BME280;49174;43.198;27.824;2022-09-12T00:15:41;100934.09;;;19.41;69.82
63090;BME280;49174;43.198;27.824;2022-09-12T00:18:08;100938.69;;;19.35;71.96
63090;BME280;49174;43.198;27.824;2022-09-12T00:20:33;100940.78;;;19.28;72.29
63090;BME280;49174;43.198;27.824;2022-09-12T00:22:59;100948.06;;;19.23;73.43
63090;BME280;49174;43.198;27.824;2022-09-12T00:25:25;100951.94;;;19.10;74.54
63090;BME280;49174;43.198;27.824;2022-09-12T00:27:51;100949.44;;;19.08;75.14
63090;BME280;49174;43.198;27.824;2022-09-12T00:30:16;100954.88;;;19.03;76.85
63090;BME280;49174;43.198;27.824;2022-09-12T00:32:42;100949.22;;;18.93;78.22
63090;BME280;49174;43.198;27.824;2022-09-12T00:35:07;100956.28;;;18.89;79.59
63090;BME280;49174;43.198;27.824;2022-09-12T00:37:33;100946.94;;;18.73;80.11
63090;BME280;49174;43.198;27.824;2022-09-12T00:39:59;100950.28;;;18.63;80.94
63090;BME280;49174;43.198;27.824;2022-09-12T00:42:25;100952.38;;;18.56;81.03
63090;BME280;49174;43.198;27.824;2022-09-12T00:44:51;100959.97;;;18.54;82.46
63090;BME280;49174;43.198;27.824;2022-09-12T00:47:23;100960.75;;;18.38;84.46
63090;BME280;49174;43.198;27.824;2022-09-12T00:49:57;100974.28;;;18.33;85.71
63090;BME280;49174;43.198;27.824;2022-09-12T00:55:05;100981.44;;;18.22;88.35
63090;BME280;49174;43.198;27.824;2022-09-12T00:57:38;100999.25;;;18.24;89.70
63090;BME280;49174;43.198;27.824;2022-09-12T01:00:11;101003.56;;;18.20;92.01
63090;BME280;49174;43.198;27.824;2022-09-12T01:02:58;101008.03;;;18.26;91.93
63090;BME280;49174;43.198;27.824;2022-09-12T01:05:24;101005.19;;;18.21;91.89
63090;BME280;49174;43.198;27.824;2022-09-12T01:07:52;101000.09;;;18.25;91.73
63090;BME280;49174;43.198;27.824;2022-09-12T01:10:19;100995.81;;;18.29;90.54
63090;BME280;49174;43.198;27.824;2022-09-12T01:12:45;100988.34;;;18.24;89.47
63090;BME280;49174;43.198;27.824;2022-09-12T01:15:12;100996.44;;;18.19;90.70
63090;BME280;49174;43.198;27.824;2022-09-12T01:26:01;100992.63;;;18.20;89.04
63090;BME280;49174;43.198;27.824;2022-09-12T01:28:57;100982.88;;;18.24;89.58
63090;BME280;49174;43.198;27.824;2022-09-12T01:31:48;100990.84;;;18.26;88.99
63090;BME280;49174;43.198;27.824;2022-09-12T01:34:25;100991.91;;;18.25;88.80
63090;BME280;49174;43.198;27.824;2022-09-12T01:40:00;100992.97;;;18.24;89.37
63090;BME280;49174;43.198;27.824;2022-09-12T01:48:24;100981.94;;;18.19;90.38
63090;BME280;49174;43.198;27.824;2022-09-12T01:53:47;100975.19;;;18.09;89.78
63090;BME280;49174;43.198;27.824;2022-09-12T01:56:17;100993.50;;;18.09;89.85
63090;BME280;49174;43.198;27.824;2022-09-12T02:01:48;100975.78;;;18.12;91.02
63090;BME280;49174;43.198;27.824;2022-09-12T02:04:35;100977.69;;;18.11;90.96
63090;BME280;49174;43.198;27.824;2022-09-12T02:07:14;100970.56;;;18.10;90.73
63090;BME280;49174;43.198;27.824;2022-09-12T02:09:44;100984.09;;;18.05;90.96
63090;BME280;49174;43.198;27.824;2022-09-12T02:12:14;100978.41;;;18.06;90.99
63090;BME280;49174;43.198;27.824;2022-09-12T02:14:48;100981.38;;;18.05;91.25
63090;BME280;49174;43.198;27.824;2022-09-12T02:17:18;100975.91;;;18.05;90.54
63090;BME280;49174;43.198;27.824;2022-09-12T02:19:49;100981.16;;;18.06;91.60
63090;BME280;49174;43.198;27.824;2022-09-12T02:22:19;100986.13;;;18.09;91.43
63090;BME280;49174;43.198;27.824;2022-09-12T02:24:49;100981.28;;;18.00;92.02
63090;BME280;49174;43.198;27.824;2022-09-12T02:29:45;100980.91;;;17.96;92.36
63090;BME280;49174;43.198;27.824;2022-09-12T02:32:23;100983.41;;;17.98;92.25
63090;BME280;49174;43.198;27.824;2022-09-12T02:35:17;100979.59;;;17.99;92.82
63090;BME280;49174;43.198;27.824;2022-09-12T02:38:05;100983.28;;;18.04;92.79
63090;BME280;49174;43.198;27.824;2022-09-12T02:40:34;100969.41;;;18.06;92.15
63090;BME280;49174;43.198;27.824;2022-09-12T02:43:02;100965.59;;;18.07;92.61
63090;BME280;49174;43.198;27.824;2022-09-12T02:45:29;100974.84;;;18.06;92.55
63090;BME280;49174;43.198;27.824;2022-09-12T02:48:23;100976.50;;;18.07;92.73
63090;BME280;49174;43.198;27.824;2022-09-12T02:50:51;100998.59;;;18.05;92.56
63090;BME280;49174;43.198;27.824;2022-09-12T02:53:17;101000.41;;;18.00;92.32
63090;BME280;49174;43.198;27.824;2022-09-12T02:55:44;100997.91;;;17.98;92.68
63090;BME280;49174;43.198;27.824;2022-09-12T02:58:16;100992.66;;;17.97;92.26
63090;BME280;49174;43.198;27.824;2022-09-12T03:00:50;100973.47;;;17.92;93.29
63090;BME280;49174;43.198;27.824;2022-09-12T03:06:00;100979.50;;;17.94;92.92
63090;BME280;49174;43.198;27.824;2022-09-12T03:08:50;100986.50;;;17.90;93.40
63090;BME280;49174;43.198;27.824;2022-09-12T03:17:39;100974.41;;;17.85;92.95
63090;BME280;49174;43.198;27.824;2022-09-12T03:19:56;100972.28;;;17.88;93.25
63090;BME280;49174;43.198;27.824;2022-09-12T03:23:22;100967.28;;;17.84;92.64
63090;BME280;49174;43.198;27.824;2022-09-12T03:25:35;100961.84;;;17.84;93.09
63090;BME280;49174;43.198;27.824;2022-09-12T03:28:35;100972.75;;;17.84;93.62
63090;BME280;49174;43.198;27.824;2022-09-12T03:30:55;100966.13;;;17.80;93.52
63090;BME280;49174;43.198;27.824;2022-09-12T03:33:24;100965.28;;;17.80;92.71
63090;BME280;49174;43.198;27.824;2022-09-12T03:35:51;100968.94;;;17.74;92.74
63090;BME280;49174;43.198;27.824;2022-09-12T03:38:18;100962.31;;;17.58;93.21
63090;BME280;49174;43.198;27.824;2022-09-12T03:40:43;100963.84;;;17.54;92.70
63090;BME280;49174;43.198;27.824;2022-09-12T03:43:10;100960.78;;;17.50;92.94
63090;BME280;49174;43.198;27.824;2022-09-12T03:45:37;100949.97;;;17.43;93.07
63090;BME280;49174;43.198;27.824;2022-09-12T03:48:03;100949.97;;;17.43;93.03
63090;BME280;49174;43.198;27.824;2022-09-12T03:50:28;100956.97;;;17.39;93.83
63090;BME280;49174;43.198;27.824;2022-09-12T03:52:54;100954.94;;;17.35;93.37
63090;BME280;49174;43.198;27.824;2022-09-12T03:55:19;100962.56;;;17.33;93.46
63090;BME280;49174;43.198;27.824;2022-09-12T03:57:45;100971.66;;;17.27;95.00
63090;BME280;49174;43.198;27.824;2022-09-12T04:00:11;100967.97;;;17.21;95.13
63090;BME280;49174;43.198;27.824;2022-09-12T04:02:37;100963.00;;;17.18;94.83
63090;BME280;49174;43.198;27.824;2022-09-12T04:05:02;100960.41;;;17.23;94.75
63090;BME280;49174;43.198;27.824;2022-09-12T04:07:28;100973.22;;;17.23;95.40
63090;BME280;49174;43.198;27.824;2022-09-12T04:09:54;100978.66;;;17.23;95.58
63090;BME280;49174;43.198;27.824;2022-09-12T04:12:20;100982.34;;;17.28;95.36
63090;BME280;49174;43.198;27.824;2022-09-12T04:14:46;100988.75;;;17.34;95.27
63090;BME280;49174;43.198;27.824;2022-09-12T04:17:13;100987.94;;;17.33;95.78
63090;BME280;49174;43.198;27.824;2022-09-12T04:19:38;100989.09;;;17.37;96.02
63090;BME280;49174;43.198;27.824;2022-09-12T04:22:04;100993.25;;;17.40;96.07
63090;BME280;49174;43.198;27.824;2022-09-12T04:24:29;100989.22;;;17.42;95.96
63090;BME280;49174;43.198;27.824;2022-09-12T04:26:55;100993.59;;;17.43;94.94
63090;BME280;49174;43.198;27.824;2022-09-12T04:29:21;100991.72;;;17.44;94.75
63090;BME280;49174;43.198;27.824;2022-09-12T04:31:47;100993.84;;;17.42;94.49
63090;BME280;49174;43.198;27.824;2022-09-12T04:34:12;100989.44;;;17.41;93.65
63090;BME280;49174;43.198;27.824;2022-09-12T04:36:39;100996.59;;;17.42;93.73
63090;BME280;49174;43.198;27.824;2022-09-12T04:39:05;101006.06;;;17.39;93.65
63090;BME280;49174;43.198;27.824;2022-09-12T04:41:37;101007.72;;;17.40;93.10
63090;BME280;49174;43.198;27.824;2022-09-12T04:44:05;101015.91;;;17.40;92.77
63090;BME280;49174;43.198;27.824;2022-09-12T04:46:34;101005.00;;;17.40;93.10
63090;BME280;49174;43.198;27.824;2022-09-12T04:49:00;101003.00;;;17.36;94.13
63090;BME280;49174;43.198;27.824;2022-09-12T04:51:29;100995.97;;;17.40;93.24
63090;BME280;49174;43.198;27.824;2022-09-12T04:53:58;101006.41;;;17.43;93.60
63090;BME280;49174;43.198;27.824;2022-09-12T04:56:24;101017.94;;;17.45;94.10
63090;BME280;49174;43.198;27.824;2022-09-12T04:58:50;101007.03;;;17.45;94.74
63090;BME280;49174;43.198;27.824;2022-09-12T05:01:19;101010.09;;;17.49;94.21
63090;BME280;49174;43.198;27.824;2022-09-12T05:03:46;101014.50;;;17.50;92.51
63090;BME280;49174;43.198;27.824;2022-09-12T05:06:18;101016.50;;;17.54;93.55
63090;BME280;49174;43.198;27.824;2022-09-12T05:08:44;101014.72;;;17.60;92.66
63090;BME280;49174;43.198;27.824;2022-09-12T05:11:21;101013.56;;;17.56;92.78
63090;BME280;49174;43.198;27.824;2022-09-12T05:13:47;101012.38;;;17.63;91.97
63090;BME280;49174;43.198;27.824;2022-09-12T05:16:14;101012.94;;;17.65;91.86
63090;BME280;49174;43.198;27.824;2022-09-12T05:18:41;101005.84;;;17.76;92.27
63090;BME280;49174;43.198;27.824;2022-09-12T05:21:10;101010.63;;;17.81;91.80
63090;BME280;49174;43.198;27.824;2022-09-12T05:23:36;101014.66;;;17.78;91.22
63090;BME280;49174;43.198;27.824;2022-09-12T05:26:03;101013.56;;;17.79;91.08
63090;BME280;49174;43.198;27.824;2022-09-12T05:28:31;101014.66;;;17.78;90.77
63090;BME280;49174;43.198;27.824;2022-09-12T05:31:11;101004.66;;;17.72;89.68
63090;BME280;49174;43.198;27.824;2022-09-12T05:33:39;101006.78;;;17.70;89.94
63090;BME280;49174;43.198;27.824;2022-09-12T05:36:06;101013.06;;;17.71;90.76
63090;BME280;49174;43.198;27.824;2022-09-12T05:38:34;101009.78;;;17.80;91.38
63090;BME280;49174;43.198;27.824;2022-09-12T05:41:11;101014.41;;;17.92;92.04
63090;BME280;49174;43.198;27.824;2022-09-12T05:43:38;101016.53;;;18.01;91.76
63090;BME280;49174;43.198;27.824;2022-09-12T05:46:08;101010.34;;;18.06;90.62
63090;BME280;49174;43.198;27.824;2022-09-12T05:48:35;101015.94;;;18.11;89.58
63090;BME280;49174;43.198;27.824;2022-09-12T05:51:15;101018.84;;;18.21;88.73
63090;BME280;49174;43.198;27.824;2022-09-12T05:53:44;101002.59;;;18.26;87.57
63090;BME280;49174;43.198;27.824;2022-09-12T05:56:12;101021.59;;;18.33;87.08
63090;BME280;49174;43.198;27.824;2022-09-12T05:58:40;101004.78;;;18.41;86.27
63090;BME280;49174;43.198;27.824;2022-09-12T06:01:09;101004.06;;;18.46;86.26
63090;BME280;49174;43.198;27.824;2022-09-12T06:03:43;101003.34;;;18.50;85.02
63090;BME280;49174;43.198;27.824;2022-09-12T06:06:10;101003.19;;;18.57;85.50
63090;BME280;49174;43.198;27.824;2022-09-12T06:08:43;101001.25;;;18.69;84.68
63090;BME280;49174;43.198;27.824;2022-09-12T06:11:14;100996.13;;;18.73;82.33
63090;BME280;49174;43.198;27.824;2022-09-12T06:13:41;101002.78;;;18.77;83.99
63090;BME280;49174;43.198;27.824;2022-09-12T06:16:15;101000.88;;;18.78;80.63
63090;BME280;49174;43.198;27.824;2022-09-12T06:18:41;100998.50;;;18.81;81.73
63090;BME280;49174;43.198;27.824;2022-09-12T06:21:11;101004.13;;;18.91;81.77
63090;BME280;49174;43.198;27.824;2022-09-12T06:23:38;101003.22;;;19.03;81.68
63090;BME280;49174;43.198;27.824;2022-09-12T06:26:05;100992.47;;;19.13;80.10
63090;BME280;49174;43.198;27.824;2022-09-12T06:28:33;101001.09;;;19.22;79.05
63090;BME280;49174;43.198;27.824;2022-09-12T06:31:04;101010.06;;;19.34;80.63
63090;BME280;49174;43.198;27.824;2022-09-12T06:33:33;101014.94;;;19.49;79.26
63090;BME280;49174;43.198;27.824;2022-09-12T06:36:19;101008.56;;;19.60;76.23
63090;BME280;49174;43.198;27.824;2022-09-12T06:38:46;101002.94;;;19.67;76.14
63090;BME280;49174;43.198;27.824;2022-09-12T06:41:14;101003.09;;;19.77;77.67
63090;BME280;49174;43.198;27.824;2022-09-12T06:43:40;101002.22;;;19.93;76.61
63090;BME280;49174;43.198;27.824;2022-09-12T06:46:07;100999.13;;;20.06;76.42
63090;BME280;49174;43.198;27.824;2022-09-12T06:48:33;101006.06;;;20.14;74.68
63090;BME280;49174;43.198;27.824;2022-09-12T06:51:10;101006.50;;;20.28;72.67
63090;BME280;49174;43.198;27.824;2022-09-12T06:53:37;100995.69;;;20.38;72.88
63090;BME280;49174;43.198;27.824;2022-09-12T06:56:05;101003.97;;;20.43;72.34
63090;BME280;49174;43.198;27.824;2022-09-12T06:58:32;100999.13;;;20.50;71.22
63090;BME280;49174;43.198;27.824;2022-09-12T07:01:09;101003.09;;;20.60;69.10
63090;BME280;49174;43.198;27.824;2022-09-12T07:03:37;101007.28;;;20.67;69.95
63090;BME280;49174;43.198;27.824;2022-09-12T07:06:14;101011.56;;;20.85;70.92
63090;BME280;49174;43.198;27.824;2022-09-12T07:08:40;100995.81;;;21.03;71.66
63090;BME280;49174;43.198;27.824;2022-09-12T07:11:17;100997.03;;;21.12;69.25
63090;BME280;49174;43.198;27.824;2022-09-12T07:13:45;101004.81;;;21.25;67.51
63090;BME280;49174;43.198;27.824;2022-09-12T07:16:12;101003.28;;;21.39;68.92
63090;BME280;49174;43.198;27.824;2022-09-12T07:18:38;101001.50;;;21.55;67.03
63090;BME280;49174;43.198;27.824;2022-09-12T07:21:11;101002.69;;;21.70;68.06
63090;BME280;49174;43.198;27.824;2022-09-12T07:23:38;101003.88;;;21.84;67.45
63090;BME280;49174;43.198;27.824;2022-09-12T07:26:05;100990.50;;;21.98;66.50
63090;BME280;49174;43.198;27.824;2022-09-12T07:28:33;100994.13;;;22.08;65.48
63090;BME280;49174;43.198;27.824;2022-09-12T07:31:13;100999.41;;;22.20;65.16
63090;BME280;49174;43.198;27.824;2022-09-12T07:33:40;101008.22;;;22.22;63.94
63090;BME280;49174;43.198;27.824;2022-09-12T07:36:09;101002.72;;;22.22;62.61
63090;BME280;49174;43.198;27.824;2022-09-12T07:38:36;101003.31;;;22.29;62.65
63090;BME280;49174;43.198;27.824;2022-09-12T07:41:13;100998.69;;;22.40;62.92
63090;BME280;49174;43.198;27.824;2022-09-12T07:43:39;100996.25;;;22.49;63.75
63090;BME280;49174;43.198;27.824;2022-09-12T07:46:06;100995.16;;;22.55;62.20
63090;BME280;49174;43.198;27.824;2022-09-12T07:48:32;100994.34;;;22.65;64.20
63090;BME280;49174;43.198;27.824;2022-09-12T07:50:59;100988.63;;;22.77;64.19
63090;BME280;49174;43.198;27.824;2022-09-12T07:53:29;100990.81;;;22.90;63.94
63090;BME280;49174;43.198;27.824;2022-09-12T07:55:56;100982.06;;;23.03;63.56
63090;BME280;49174;43.198;27.824;2022-09-12T07:58:22;100988.13;;;23.15;61.01
63090;BME280;49174;43.198;27.824;2022-09-12T08:00:48;100987.84;;;23.22;58.84
63090;BME280;49174;43.198;27.824;2022-09-12T08:03:15;100980.41;;;23.28;60.72
63090;BME280;49174;43.198;27.824;2022-09-12T08:05:40;100982.59;;;23.36;59.99
63090;BME280;49174;43.198;27.824;2022-09-12T08:08:06;100989.75;;;23.47;57.84
63090;BME280;49174;43.198;27.824;2022-09-12T08:10:31;100985.34;;;23.51;58.79
63090;BME280;49174;43.198;27.824;2022-09-12T08:12:57;100995.25;;;23.57;58.74
63090;BME280;49174;43.198;27.824;2022-09-12T08:15:23;100988.38;;;23.60;58.05
63090;BME280;49174;43.198;27.824;2022-09-12T08:17:49;100977.31;;;23.65;57.51
63090;BME280;49174;43.198;27.824;2022-09-12T08:20:14;100980.41;;;23.74;58.26
63090;BME280;49174;43.198;27.824;2022-09-12T08:22:42;100981.47;;;23.83;57.78
63090;BME280;49174;43.198;27.824;2022-09-12T08:25:08;100979.50;;;23.89;56.80
63090;BME280;49174;43.198;27.824;2022-09-12T08:27:34;100976.75;;;23.94;56.51
63090;BME280;49174;43.198;27.824;2022-09-12T08:29:59;100976.19;;;23.97;54.53
63090;BME280;49174;43.198;27.824;2022-09-12T08:32:25;100969.84;;;23.96;54.91
63090;BME280;49174;43.198;27.824;2022-09-12T08:34:50;100959.41;;;23.93;53.73
63090;BME280;49174;43.198;27.824;2022-09-12T08:37:16;100966.53;;;23.94;55.08
63090;BME280;49174;43.198;27.824;2022-09-12T08:39:42;100961.28;;;24.03;55.89
63090;BME280;49174;43.198;27.824;2022-09-12T08:42:09;100958.19;;;24.09;53.17
63090;BME280;49174;43.198;27.824;2022-09-12T08:47:40;100956.66;;;24.43;55.12
63090;BME280;49174;43.198;27.824;2022-09-12T08:53:24;100951.03;;;24.68;52.08
63090;BME280;49174;43.198;27.824;2022-09-12T08:55:51;100944.34;;;24.80;53.89
63090;BME280;49174;43.198;27.824;2022-09-12T08:58:20;100948.38;;;24.92;53.51
63090;BME280;49174;43.198;27.824;2022-09-12T09:06:55;100930.75;;;25.23;52.35
63090;BME280;49174;43.198;27.824;2022-09-12T09:12:06;100924.19;;;25.42;51.32
63090;BME280;49174;43.198;27.824;2022-09-12T09:17:41;100930.66;;;25.86;51.56
63090;BME280;49174;43.198;27.824;2022-09-12T09:20:17;100916.41;;;25.98;49.16
63090;BME280;49174;43.198;27.824;2022-09-12T09:23:05;100904.03;;;26.14;49.25
63090;BME280;49174;43.198;27.824;2022-09-12T09:28:24;100899.69;;;26.46;48.22
63090;BME280;49174;43.198;27.824;2022-09-12T09:30:51;100882.22;;;26.50;47.25
63090;BME280;49174;43.198;27.824;2022-09-12T09:33:22;100898.28;;;26.67;47.14
63090;BME280;49174;43.198;27.824;2022-09-12T09:36:01;100898.47;;;26.90;45.73
63090;BME280;49174;43.198;27.824;2022-09-12T09:43:44;100901.16;;;27.28;46.96
63090;BME280;49174;43.198;27.824;2022-09-12T09:46:10;100898.41;;;27.09;46.63
63090;BME280;49174;43.198;27.824;2022-09-12T09:48:40;100890.78;;;27.20;45.54
63090;BME280;49174;43.198;27.824;2022-09-12T09:51:08;100889.34;;;27.22;43.57
63090;BME280;49174;43.198;27.824;2022-09-12T09:53:39;100889.47;;;27.45;44.09
63090;BME280;49174;43.198;27.824;2022-09-12T09:56:10;100894.19;;;27.44;43.47
63090;BME280;49174;43.198;27.824;2022-09-12T09:58:38;100892.56;;;27.71;43.26
63090;BME280;49174;43.198;27.824;2022-09-12T10:01:15;100890.41;;;27.95;41.52
63090;BME280;49174;43.198;27.824;2022-09-12T10:03:50;100893.09;;;28.00;42.58
63090;BME280;49174;43.198;27.824;2022-09-12T10:08:46;100896.56;;;28.06;42.96
63090;BME280;49174;43.198;27.824;2022-09-12T10:18:50;100883.09;;;27.99;41.89
63090;BME280;49174;43.198;27.824;2022-09-12T10:24:02;100886.38;;;27.60;43.33
63090;BME280;49174;43.198;27.824;2022-09-12T10:26:37;100892.97;;;27.50;42.83
63090;BME280;49174;43.198;27.824;2022-09-12T10:29:11;100885.47;;;27.37;43.50
63090;BME280;49174;43.198;27.824;2022-09-12T10:31:46;100878.59;;;27.34;42.71
63090;BME280;49174;43.198;27.824;2022-09-12T10:36:51;100880.22;;;28.04;42.64
63090;BME280;49174;43.198;27.824;2022-09-12T10:39:19;100885.84;;;28.13;41.49
63090;BME280;49174;43.198;27.824;2022-09-12T10:41:45;100873.59;;;28.28;40.16
63090;BME280;49174;43.198;27.824;2022-09-12T10:44:22;100875.22;;;28.65;39.45
63090;BME280;49174;43.198;27.824;2022-09-12T10:46:50;100873.13;;;28.48;39.13
63090;BME280;49174;43.198;27.824;2022-09-12T10:49:26;100882.09;;;28.45;40.26
63090;BME280;49174;43.198;27.824;2022-09-12T10:51:53;100884.38;;;28.66;39.87
63090;BME280;49174;43.198;27.824;2022-09-12T10:54:22;100883.59;;;28.96;39.56
63090;BME280;49174;43.198;27.824;2022-09-12T11:07:48;100876.34;;;28.87;38.61
63090;BME280;49174;43.198;27.824;2022-09-12T11:26:49;100867.75;;;28.97;36.48
63090;BME280;49174;43.198;27.824;2022-09-12T11:30:09;100870.03;;;28.95;36.53
63090;BME280;49174;43.198;27.824;2022-09-12T11:35:20;100878.16;;;28.46;37.58
63090;BME280;49174;43.198;27.824;2022-09-12T11:43:20;100869.34;;;27.94;39.17
63090;BME280;49174;43.198;27.824;2022-09-12T11:45:48;100859.94;;;27.81;38.67
63090;BME280;49174;43.198;27.824;2022-09-12T11:48:31;100866.97;;;27.74;39.17
63090;BME280;49174;43.198;27.824;2022-09-12T11:51:02;100868.53;;;27.80;38.45
63090;BME280;49174;43.198;27.824;2022-09-12T11:53:35;100860.00;;;27.90;37.10
63090;BME280;49174;43.198;27.824;2022-09-12T11:56:13;100859.41;;;27.79;36.89
63090;BME280;49174;43.198;27.824;2022-09-12T11:58:43;100851.06;;;27.66;36.81
63090;BME280;49174;43.198;27.824;2022-09-12T12:01:14;100855.09;;;27.59;39.09
63090;BME280;49174;43.198;27.824;2022-09-12T12:03:44;100858.91;;;27.50;38.11
63090;BME280;49174;43.198;27.824;2022-09-12T12:06:17;100860.53;;;27.37;39.13
63090;BME280;49174;43.198;27.824;2022-09-12T12:08:47;100865.25;;;27.23;39.44
63090;BME280;49174;43.198;27.824;2022-09-12T12:11:23;100862.31;;;27.14;38.64
63090;BME280;49174;43.198;27.824;2022-09-12T12:14:03;100859.56;;;27.14;37.98
63090;BME280;49174;43.198;27.824;2022-09-12T12:16:36;100860.59;;;27.18;37.59
63090;BME280;49174;43.198;27.824;2022-09-12T12:21:41;100857.06;;;27.87;37.67
63090;BME280;49174;43.198;27.824;2022-09-12T12:40:08;100853.13;;;27.46;36.82
63090;BME280;49174;43.198;27.824;2022-09-12T12:47:46;100850.25;;;27.24;37.55
63090;BME280;49174;43.198;27.824;2022-09-12T12:52:56;100851.09;;;27.52;36.65
63090;BME280;49174;43.198;27.824;2022-09-12T12:55:30;100849.13;;;27.52;36.57
63090;BME280;49174;43.198;27.824;2022-09-12T12:57:59;100861.34;;;27.51;38.00
63090;BME280;49174;43.198;27.824;2022-09-12T13:00:29;100856.22;;;27.45;38.46
63090;BME280;49174;43.198;27.824;2022-09-12T13:05:48;100857.97;;;27.40;37.38
63090;BME280;49174;43.198;27.824;2022-09-12T13:10:55;100846.34;;;27.52;37.46
63090;BME280;49174;43.198;27.824;2022-09-12T13:13:47;100856.22;;;27.58;37.10
63090;BME280;49174;43.198;27.824;2022-09-12T13:16:34;100864.84;;;27.57;37.62
63090;BME280;49174;43.198;27.824;2022-09-12T13:19:11;100858.47;;;27.56;37.62
63090;BME280;49174;43.198;27.824;2022-09-12T13:21:38;100860.53;;;27.51;37.33
63090;BME280;49174;43.198;27.824;2022-09-12T13:24:12;100869.75;;;27.46;36.82
63090;BME280;49174;43.198;27.824;2022-09-12T13:26:42;100865.25;;;27.36;38.31
63090;BME280;49174;43.198;27.824;2022-09-12T13:31:41;100866.88;;;27.24;38.45
63090;BME280;49174;43.198;27.824;2022-09-12T13:34:08;100869.13;;;27.22;38.59
63090;BME280;49174;43.198;27.824;2022-09-12T13:39:59;100864.22;;;27.60;39.81
63090;BME280;49174;43.198;27.824;2022-09-12T13:45:14;100866.47;;;27.72;36.80
63090;BME280;49174;43.198;27.824;2022-09-12T13:47:44;100874.28;;;27.56;37.89
63090;BME280;49174;43.198;27.824;2022-09-12T13:50:18;100872.31;;;27.29;37.47
63090;BME280;49174;43.198;27.824;2022-09-12T13:52:52;100860.72;;;27.27;38.09
63090;BME280;49174;43.198;27.824;2022-09-12T13:55:24;100866.38;;;27.35;37.71
63090;BME280;49174;43.198;27.824;2022-09-12T13:58:03;100861.25;;;27.43;36.98
63090;BME280;49174;43.198;27.824;2022-09-12T14:00:30;100864.22;;;27.46;36.15
63090;BME280;49174;43.198;27.824;2022-09-12T14:02:57;100859.72;;;27.36;36.77
63090;BME280;49174;43.198;27.824;2022-09-12T14:06:01;100868.00;;;27.23;38.30
63090;BME280;49174;43.198;27.824;2022-09-12T14:08:27;100866.53;;;27.11;38.32
63090;BME280;49174;43.198;27.824;2022-09-12T14:10:53;100868.03;;;27.04;37.52
63090;BME280;49174;43.198;27.824;2022-09-12T14:13:21;100866.25;;;26.94;37.65
63090;BME280;49174;43.198;27.824;2022-09-12T14:15:50;100868.63;;;26.87;37.97
63090;BME280;49174;43.198;27.824;2022-09-12T14:18:28;100865.41;;;26.80;38.75
63090;BME280;49174;43.198;27.824;2022-09-12T14:21:00;100872.69;;;26.76;38.88
63090;BME280;49174;43.198;27.824;2022-09-12T14:23:38;100870.53;;;26.72;40.27
63090;BME280;49174;43.198;27.824;2022-09-12T14:26:09;100876.34;;;26.71;38.56
63090;BME280;49174;43.198;27.824;2022-09-12T14:28:38;100875.97;;;26.78;37.91
63090;BME280;49174;43.198;27.824;2022-09-12T14:31:28;100871.91;;;26.89;37.02
63090;BME280;49174;43.198;27.824;2022-09-12T14:34:07;100863.72;;;26.98;36.72
63090;BME280;49174;43.198;27.824;2022-09-12T14:36:46;100874.00;;;26.97;37.47
63090;BME280;49174;43.198;27.824;2022-09-12T14:39:27;100874.16;;;26.87;37.50
63090;BME280;49174;43.198;27.824;2022-09-12T14:42:10;100881.53;;;26.78;38.33
63090;BME280;49174;43.198;27.824;2022-09-12T14:44:38;100883.09;;;26.65;38.14
63090;BME280;49174;43.198;27.824;2022-09-12T14:47:13;100882.66;;;26.58;38.83
63090;BME280;49174;43.198;27.824;2022-09-12T14:49:40;100881.91;;;26.52;38.25
63090;BME280;49174;43.198;27.824;2022-09-12T14:52:20;100879.13;;;26.52;37.45
63090;BME280;49174;43.198;27.824;2022-09-12T14:55:19;100883.41;;;26.44;37.33
63090;BME280;49174;43.198;27.824;2022-09-12T14:57:46;100877.63;;;26.41;38.83
63090;BME280;49174;43.198;27.824;2022-09-12T15:00:16;100881.91;;;26.33;37.18
63090;BME280;49174;43.198;27.824;2022-09-12T15:02:45;100876.13;;;26.29;38.44
63090;BME280;49174;43.198;27.824;2022-09-12T15:07:57;100870.38;;;26.26;38.37
63090;BME280;49174;43.198;27.824;2022-09-12T15:13:13;100862.22;;;26.16;39.45
63090;BME280;49174;43.198;27.824;2022-09-12T15:15:44;100864.91;;;26.02;38.89
63090;BME280;49174;43.198;27.824;2022-09-12T15:18:10;100867.31;;;25.90;39.23
63090;BME280;49174;43.198;27.824;2022-09-12T15:20:38;100870.75;;;25.76;39.90
63090;BME280;49174;43.198;27.824;2022-09-12T15:23:06;100860.13;;;25.64;40.26
63090;BME280;49174;43.198;27.824;2022-09-12T15:25:35;100871.00;;;25.56;40.99
63090;BME280;49174;43.198;27.824;2022-09-12T15:28:07;100860.88;;;25.46;41.31
63090;BME280;49174;43.198;27.824;2022-09-12T15:30:39;100859.91;;;25.37;41.33
63090;BME280;49174;43.198;27.824;2022-09-12T15:33:04;100861.31;;;25.34;41.84
63090;BME280;49174;43.198;27.824;2022-09-12T15:35:31;100860.25;;;25.30;42.11
63090;BME280;49174;43.198;27.824;2022-09-12T15:37:57;100863.34;;;25.24;42.41